Apiliotis — SYVY — position and weather

sailwx.info

Track history (hours):
 
Tides and Currents Weather Stations Pressure Air Temp Water Temp Dewpoint Dewpoint Depression Visibility Wind Speed Wind Dir Waves Ship Positions

Apiliotis

Last reported at 2016-Sep-21 19:15 UTC. Time now 2016-Sep-28 00:11 UTC.
Position N 37°23' E 024°05'.

Length 78 m; draft 4 m.

Type: Ship. MMSI: 240438000.

Date/timePositionNaut miles runAvg speedWind from/ knotsBaromVisibWave heightAir tempDewpointWater temp
2016-Sep-21 19:15N 37°23' E 024°05'3011.3
2016-Sep-21 16:33N 37°46' E 023°39'17 2.4
2016-Sep-21 09:34N 38°02' E 023°32'0 0.0
2016-Sep-21 08:33N 38°02' E 023°32'0 0.0
2016-Sep-21 05:34N 38°02' E 023°32'0 0.0
2016-Sep-21 03:33N 38°02' E 023°32'0 0.0
2016-Sep-21 02:34N 38°02' E 023°32'3 0.3
2016-Sep-20 17:33N 38°02' E 023°36'0 0.0
2016-Sep-20 14:34N 38°02' E 023°36'0 0.0
2016-Sep-20 13:33N 38°02' E 023°36'3 0.8
2016-Sep-20 10:33N 38°02' E 023°32'0 0.0
2016-Sep-20 08:34N 38°02' E 023°32'0 0.0
2016-Sep-20 07:33N 38°02' E 023°32'0 0.0
2016-Sep-20 06:34N 38°02' E 023°33'0 0.1
2016-Sep-20 02:33N 38°02' E 023°32'0 0.0
2016-Sep-19 23:34N 38°02' E 023°32'0 0.0
2016-Sep-19 19:33N 38°02' E 023°32'0 0.0
2016-Sep-19 18:34N 38°02' E 023°32'0 0.0
2016-Sep-19 16:34N 38°02' E 023°32'0 0.0
2016-Sep-19 14:33N 38°02' E 023°32'0 0.0
2016-Sep-19 13:33N 38°02' E 023°32'0 0.0
2016-Sep-19 12:33N 38°02' E 023°32'0 0.0
2016-Sep-19 11:33N 38°02' E 023°32'0 0.0
2016-Sep-19 09:33N 38°02' E 023°32'0 0.0
2016-Sep-19 07:34N 38°02' E 023°32'0 0.1
2016-Sep-19 06:34N 38°02' E 023°32'0 0.0
2016-Sep-19 03:33N 38°02' E 023°32'0 0.0
2016-Sep-19 02:34N 38°02' E 023°32'0 0.0
2016-Sep-19 00:33N 38°02' E 023°32'0 0.0
2016-Sep-18 19:33N 38°02' E 023°32'2 0.4
2016-Sep-18 15:34N 38°00' E 023°33'1010.3
2016-Sep-18 14:34N 37°51' E 023°39'52 4.3
2016-Sep-18 02:30N 37°31' E 024°39'1111.0
2016-Sep-18 01:31N 37°32' E 024°52'1010.7
2016-Sep-18 00:34N 37°32' E 025°05'3 1.6
2016-Sep-17 22:34N 37°32' E 025°09'0 0.0
2016-Sep-17 21:34N 37°32' E 025°09'0 0.0
2016-Sep-17 20:33N 37°32' E 025°09'0 0.0
2016-Sep-17 19:16N 37°32' E 025°09'0 0.0
2016-Sep-17 13:34N 37°32' E 025°09'0 0.0
2016-Sep-17 12:34N 37°32' E 025°09'14 6.9
2016-Sep-17 10:34N 37°19' E 025°08'17 1.0
2016-Sep-16 17:34N 37°06' E 025°22'4 2.1
2016-Sep-16 15:31N 37°10' E 025°25'  
Track history (hours):
 
Tides and Currents Weather Stations Pressure Air Temp Water Temp Dewpoint Dewpoint Depression Visibility Wind Speed Wind Dir Waves Ship Positions

Apiliotis

Last reported at 2016-Sep-21 19:15 UTC. Time now 2016-Sep-28 00:11 UTC.
Position N 37°23' E 024°05'.

Length 78 m; draft 4 m.

Type: Ship. MMSI: 240438000.

Date/timePositionNaut miles runAvg speedWind from/ knotsBaromVisibWave heightAir tempDewpointWater temp
2016-Sep-21 19:15N 37°23' E 024°05'3011.3
2016-Sep-21 16:33N 37°46' E 023°39'17 2.4
2016-Sep-21 09:34N 38°02' E 023°32'0 0.0
2016-Sep-21 08:33N 38°02' E 023°32'0 0.0
2016-Sep-21 05:34N 38°02' E 023°32'0 0.0
2016-Sep-21 03:33N 38°02' E 023°32'0 0.0
2016-Sep-21 02:34N 38°02' E 023°32'3 0.3
2016-Sep-20 17:33N 38°02' E 023°36'0 0.0
2016-Sep-20 14:34N 38°02' E 023°36'0 0.0
2016-Sep-20 13:33N 38°02' E 023°36'3 0.8
2016-Sep-20 10:33N 38°02' E 023°32'0 0.0
2016-Sep-20 08:34N 38°02' E 023°32'0 0.0
2016-Sep-20 07:33N 38°02' E 023°32'0 0.0
2016-Sep-20 06:34N 38°02' E 023°33'0 0.1
2016-Sep-20 02:33N 38°02' E 023°32'0 0.0
2016-Sep-19 23:34N 38°02' E 023°32'0 0.0
2016-Sep-19 19:33N 38°02' E 023°32'0 0.0
2016-Sep-19 18:34N 38°02' E 023°32'0 0.0
2016-Sep-19 16:34N 38°02' E 023°32'0 0.0
2016-Sep-19 14:33N 38°02' E 023°32'0 0.0
2016-Sep-19 13:33N 38°02' E 023°32'0 0.0
2016-Sep-19 12:33N 38°02' E 023°32'0 0.0
2016-Sep-19 11:33N 38°02' E 023°32'0 0.0
2016-Sep-19 09:33N 38°02' E 023°32'0 0.0
2016-Sep-19 07:34N 38°02' E 023°32'0 0.1
2016-Sep-19 06:34N 38°02' E 023°32'0 0.0
2016-Sep-19 03:33N 38°02' E 023°32'0 0.0
2016-Sep-19 02:34N 38°02' E 023°32'0 0.0
2016-Sep-19 00:33N 38°02' E 023°32'0 0.0
2016-Sep-18 19:33N 38°02' E 023°32'2 0.4
2016-Sep-18 15:34N 38°00' E 023°33'1010.3
2016-Sep-18 14:34N 37°51' E 023°39'52 4.3
2016-Sep-18 02:30N 37°31' E 024°39'1111.0
2016-Sep-18 01:31N 37°32' E 024°52'1010.7
2016-Sep-18 00:34N 37°32' E 025°05'3 1.6
2016-Sep-17 22:34N 37°32' E 025°09'0 0.0
2016-Sep-17 21:34N 37°32' E 025°09'0 0.0
2016-Sep-17 20:33N 37°32' E 025°09'0 0.0
2016-Sep-17 19:16N 37°32' E 025°09'0 0.0
2016-Sep-17 13:34N 37°32' E 025°09'0 0.0
2016-Sep-17 12:34N 37°32' E 025°09'14 6.9
2016-Sep-17 10:34N 37°19' E 025°08'17 1.0
2016-Sep-16 17:34N 37°06' E 025°22'4 2.1
2016-Sep-16 15:31N 37°10' E 025°25'  

Dump ship's entire track history